sensor_id;sensor_type;location;lat;lon;timestamp;temperature;humidity
8896;DHT22;4484;48.928;10.066;2023-03-23T00:01:48;10.40;99.90
8896;DHT22;4484;48.928;10.066;2023-03-23T00:04:17;10.40;99.90
8896;DHT22;4484;48.928;10.066;2023-03-23T00:06:43;10.50;99.90
8896;DHT22;4484;48.928;10.066;2023-03-23T00:09:12;10.50;99.90
8896;DHT22;4484;48.928;10.066;2023-03-23T00:11:38;10.50;99.90
8896;DHT22;4484;48.928;10.066;2023-03-23T00:14:04;10.40;99.90
8896;DHT22;4484;48.928;10.066;2023-03-23T00:16:32;10.40;99.90
8896;DHT22;4484;48.928;10.066;2023-03-23T00:19:04;10.40;99.90
8896;DHT22;4484;48.928;10.066;2023-03-23T00:21:35;10.30;99.90
8896;DHT22;4484;48.928;10.066;2023-03-23T00:24:15;10.30;99.90
8896;DHT22;4484;48.928;10.066;2023-03-23T00:26:44;10.30;99.90
8896;DHT22;4484;48.928;10.066;2023-03-23T00:29:16;10.20;99.90
8896;DHT22;4484;48.928;10.066;2023-03-23T00:31:43;10.20;99.90
8896;DHT22;4484;48.928;10.066;2023-03-23T00:34:20;10.20;99.90
8896;DHT22;4484;48.928;10.066;2023-03-23T00:36:47;10.20;99.90
8896;DHT22;4484;48.928;10.066;2023-03-23T00:39:13;10.30;99.90
8896;DHT22;4484;48.928;10.066;2023-03-23T00:41:42;10.30;99.90
8896;DHT22;4484;48.928;10.066;2023-03-23T00:44:08;10.30;99.90
8896;DHT22;4484;48.928;10.066;2023-03-23T00:46:34;10.30;99.90
8896;DHT22;4484;48.928;10.066;2023-03-23T00:49:01;10.30;99.90
8896;DHT22;4484;48.928;10.066;2023-03-23T00:51:28;10.30;99.90
8896;DHT22;4484;48.928;10.066;2023-03-23T00:53:53;10.20;99.90
8896;DHT22;4484;48.928;10.066;2023-03-23T00:56:19;10.20;99.90
8896;DHT22;4484;48.928;10.066;2023-03-23T00:58:45;10.20;99.90
8896;DHT22;4484;48.928;10.066;2023-03-23T01:01:11;10.20;99.90
8896;DHT22;4484;48.928;10.066;2023-03-23T01:03:36;10.20;99.90
8896;DHT22;4484;48.928;10.066;2023-03-23T01:06:08;10.20;99.90
8896;DHT22;4484;48.928;10.066;2023-03-23T01:08:41;10.20;99.90
8896;DHT22;4484;48.928;10.066;2023-03-23T01:11:15;10.20;99.90
8896;DHT22;4484;48.928;10.066;2023-03-23T01:13:42;10.20;99.90
8896;DHT22;4484;48.928;10.066;2023-03-23T01:16:09;10.20;99.90
8896;DHT22;4484;48.928;10.066;2023-03-23T01:22:48;10.30;99.90
8896;DHT22;4484;48.928;10.066;2023-03-23T01:25:14;10.30;99.90
8896;DHT22;4484;48.928;10.066;2023-03-23T01:27:40;10.30;99.90
8896;DHT22;4484;48.928;10.066;2023-03-23T01:30:08;10.30;99.90
8896;DHT22;4484;48.928;10.066;2023-03-23T01:32:37;10.30;99.90
8896;DHT22;4484;48.928;10.066;2023-03-23T01:35:03;10.30;99.90
8896;DHT22;4484;48.928;10.066;2023-03-23T01:37:30;10.30;99.90
8896;DHT22;4484;48.928;10.066;2023-03-23T01:39:57;10.20;99.90
8896;DHT22;4484;48.928;10.066;2023-03-23T01:42:30;10.20;99.90
8896;DHT22;4484;48.928;10.066;2023-03-23T01:45:25;10.30;99.90
8896;DHT22;4484;48.928;10.066;2023-03-23T01:48:15;10.30;99.90
8896;DHT22;4484;48.928;10.066;2023-03-23T01:51:04;10.30;99.90
8896;DHT22;4484;48.928;10.066;2023-03-23T01:53:45;10.30;99.90
8896;DHT22;4484;48.928;10.066;2023-03-23T01:56:13;10.30;99.90
8896;DHT22;4484;48.928;10.066;2023-03-23T01:58:41;10.30;99.90
8896;DHT22;4484;48.928;10.066;2023-03-23T02:01:10;10.30;99.90
8896;DHT22;4484;48.928;10.066;2023-03-23T02:03:41;10.40;99.90
8896;DHT22;4484;48.928;10.066;2023-03-23T02:06:07;10.30;99.90
8896;DHT22;4484;48.928;10.066;2023-03-23T02:08:38;10.40;99.90
8896;DHT22;4484;48.928;10.066;2023-03-23T02:11:14;10.30;99.90
8896;DHT22;4484;48.928;10.066;2023-03-23T02:13:41;10.30;99.90
8896;DHT22;4484;48.928;10.066;2023-03-23T02:16:51;10.30;99.90
8896;DHT22;4484;48.928;10.066;2023-03-23T02:22:05;10.30;99.90
8896;DHT22;4484;48.928;10.066;2023-03-23T02:27:43;10.30;99.90
8896;DHT22;4484;48.928;10.066;2023-03-23T02:30:35;10.30;99.90
8896;DHT22;4484;48.928;10.066;2023-03-23T02:33:26;10.40;99.90
8896;DHT22;4484;48.928;10.066;2023-03-23T02:38:43;10.30;99.90
8896;DHT22;4484;48.928;10.066;2023-03-23T02:41:11;10.30;99.90
8896;DHT22;4484;48.928;10.066;2023-03-23T02:43:42;10.30;99.90
8896;DHT22;4484;48.928;10.066;2023-03-23T02:46:10;10.30;99.90
8896;DHT22;4484;48.928;10.066;2023-03-23T02:48:38;10.30;99.90
8896;DHT22;4484;48.928;10.066;2023-03-23T02:51:05;10.20;99.90
8896;DHT22;4484;48.928;10.066;2023-03-23T02:53:33;10.20;99.90
8896;DHT22;4484;48.928;10.066;2023-03-23T02:56:00;10.20;99.90
8896;DHT22;4484;48.928;10.066;2023-03-23T02:58:29;10.20;99.90
8896;DHT22;4484;48.928;10.066;2023-03-23T03:00:56;10.20;99.90
8896;DHT22;4484;48.928;10.066;2023-03-23T03:03:28;10.20;99.90
8896;DHT22;4484;48.928;10.066;2023-03-23T03:08:55;10.20;99.90
8896;DHT22;4484;48.928;10.066;2023-03-23T03:11:23;10.20;99.90
8896;DHT22;4484;48.928;10.066;2023-03-23T03:14:02;10.20;99.90
8896;DHT22;4484;48.928;10.066;2023-03-23T03:19:22;10.20;99.90
8896;DHT22;4484;48.928;10.066;2023-03-23T03:21:52;10.20;99.90
8896;DHT22;4484;48.928;10.066;2023-03-23T03:24:28;10.20;99.90
8896;DHT22;4484;48.928;10.066;2023-03-23T03:26:57;10.20;99.90
8896;DHT22;4484;48.928;10.066;2023-03-23T03:29:36;10.20;99.90
8896;DHT22;4484;48.928;10.066;2023-03-23T03:32:05;10.20;99.90
8896;DHT22;4484;48.928;10.066;2023-03-23T03:34:33;10.20;99.90
8896;DHT22;4484;48.928;10.066;2023-03-23T03:37:01;10.20;99.90
8896;DHT22;4484;48.928;10.066;2023-03-23T03:39:30;10.20;99.90
8896;DHT22;4484;48.928;10.066;2023-03-23T03:41:56;10.20;99.90
8896;DHT22;4484;48.928;10.066;2023-03-23T03:44:22;10.30;99.90
8896;DHT22;4484;48.928;10.066;2023-03-23T03:46:48;10.30;99.90
8896;DHT22;4484;48.928;10.066;2023-03-23T03:49:15;10.30;99.90
8896;DHT22;4484;48.928;10.066;2023-03-23T03:51:42;10.40;99.90
8896;DHT22;4484;48.928;10.066;2023-03-23T03:54:15;10.40;99.90
8896;DHT22;4484;48.928;10.066;2023-03-23T03:56:41;10.40;99.90
8896;DHT22;4484;48.928;10.066;2023-03-23T03:59:27;10.40;99.90
8896;DHT22;4484;48.928;10.066;2023-03-23T04:02:22;10.50;99.90
8896;DHT22;4484;48.928;10.066;2023-03-23T04:04:50;10.50;99.90
8896;DHT22;4484;48.928;10.066;2023-03-23T04:07:18;10.50;99.90
8896;DHT22;4484;48.928;10.066;2023-03-23T04:09:44;10.50;99.90
8896;DHT22;4484;48.928;10.066;2023-03-23T04:12:16;10.50;99.90
8896;DHT22;4484;48.928;10.066;2023-03-23T04:15:02;10.50;99.90
8896;DHT22;4484;48.928;10.066;2023-03-23T04:17:32;10.50;99.90
8896;DHT22;4484;48.928;10.066;2023-03-23T04:19:58;10.50;99.90
8896;DHT22;4484;48.928;10.066;2023-03-23T04:22:27;10.60;99.90
8896;DHT22;4484;48.928;10.066;2023-03-23T04:24:58;10.60;99.90
8896;DHT22;4484;48.928;10.066;2023-03-23T04:27:27;10.70;99.90
8896;DHT22;4484;48.928;10.066;2023-03-23T04:29:56;10.70;99.90
8896;DHT22;4484;48.928;10.066;2023-03-23T04:32:42;10.70;99.90
8896;DHT22;4484;48.928;10.066;2023-03-23T04:35:12;10.70;99.90
8896;DHT22;4484;48.928;10.066;2023-03-23T04:37:47;10.70;99.90
8896;DHT22;4484;48.928;10.066;2023-03-23T04:40:17;10.70;99.90
8896;DHT22;4484;48.928;10.066;2023-03-23T04:42:52;10.80;99.90
8896;DHT22;4484;48.928;10.066;2023-03-23T04:45:35;10.80;99.90
8896;DHT22;4484;48.928;10.066;2023-03-23T04:48:04;10.80;99.90
8896;DHT22;4484;48.928;10.066;2023-03-23T04:50:43;10.90;99.90
8896;DHT22;4484;48.928;10.066;2023-03-23T04:53:19;11.00;99.90
8896;DHT22;4484;48.928;10.066;2023-03-23T04:55:47;10.90;99.90
8896;DHT22;4484;48.928;10.066;2023-03-23T04:58:14;10.90;99.90
8896;DHT22;4484;48.928;10.066;2023-03-23T05:00:55;11.00;99.90
8896;DHT22;4484;48.928;10.066;2023-03-23T05:03:22;11.00;99.90
8896;DHT22;4484;48.928;10.066;2023-03-23T05:05:50;11.00;99.90
8896;DHT22;4484;48.928;10.066;2023-03-23T05:08:20;11.00;99.90
8896;DHT22;4484;48.928;10.066;2023-03-23T05:10:54;11.10;99.90
8896;DHT22;4484;48.928;10.066;2023-03-23T05:13:23;11.20;99.90
8896;DHT22;4484;48.928;10.066;2023-03-23T05:15:52;11.20;99.90
8896;DHT22;4484;48.928;10.066;2023-03-23T05:18:17;11.20;99.90
8896;DHT22;4484;48.928;10.066;2023-03-23T05:20:43;11.20;99.90
8896;DHT22;4484;48.928;10.066;2023-03-23T05:23:15;11.20;99.90
8896;DHT22;4484;48.928;10.066;2023-03-23T05:25:51;11.20;99.90
8896;DHT22;4484;48.928;10.066;2023-03-23T05:28:18;11.20;99.90
8896;DHT22;4484;48.928;10.066;2023-03-23T05:30:50;11.30;99.90
8896;DHT22;4484;48.928;10.066;2023-03-23T05:33:17;11.20;99.90
8896;DHT22;4484;48.928;10.066;2023-03-23T05:35:50;11.40;99.90
8896;DHT22;4484;48.928;10.066;2023-03-23T05:38:21;11.40;99.90
8896;DHT22;4484;48.928;10.066;2023-03-23T05:40:48;11.50;99.90
8896;DHT22;4484;48.928;10.066;2023-03-23T05:43:16;11.50;99.90
8896;DHT22;4484;48.928;10.066;2023-03-23T05:45:56;11.50;99.90
8896;DHT22;4484;48.928;10.066;2023-03-23T05:48:22;11.50;99.90
8896;DHT22;4484;48.928;10.066;2023-03-23T05:50:48;11.50;99.90
8896;DHT22;4484;48.928;10.066;2023-03-23T05:53:13;11.60;99.90
8896;DHT22;4484;48.928;10.066;2023-03-23T05:55:39;11.60;99.90
8896;DHT22;4484;48.928;10.066;2023-03-23T05:58:18;11.60;99.90
8896;DHT22;4484;48.928;10.066;2023-03-23T06:00:45;11.70;99.90
8896;DHT22;4484;48.928;10.066;2023-03-23T06:03:26;11.70;99.90
8896;DHT22;4484;48.928;10.066;2023-03-23T06:06:03;11.70;99.90
8896;DHT22;4484;48.928;10.066;2023-03-23T06:08:44;11.70;99.90
8896;DHT22;4484;48.928;10.066;2023-03-23T06:11:10;11.80;99.90
8896;DHT22;4484;48.928;10.066;2023-03-23T06:13:43;11.80;99.90
8896;DHT22;4484;48.928;10.066;2023-03-23T06:16:10;11.80;99.90
8896;DHT22;4484;48.928;10.066;2023-03-23T06:18:47;11.90;99.90
8896;DHT22;4484;48.928;10.066;2023-03-23T06:21:22;11.80;99.90
8896;DHT22;4484;48.928;10.066;2023-03-23T06:23:58;11.90;99.90
8896;DHT22;4484;48.928;10.066;2023-03-23T06:26:34;11.90;99.90
8896;DHT22;4484;48.928;10.066;2023-03-23T06:29:05;11.90;99.90
8896;DHT22;4484;48.928;10.066;2023-03-23T06:31:42;11.90;99.90
8896;DHT22;4484;48.928;10.066;2023-03-23T06:34:09;11.90;99.90
8896;DHT22;4484;48.928;10.066;2023-03-23T06:36:56;12.00;99.90
8896;DHT22;4484;48.928;10.066;2023-03-23T06:39:42;12.00;99.90
8896;DHT22;4484;48.928;10.066;2023-03-23T06:42:19;12.10;99.90
8896;DHT22;4484;48.928;10.066;2023-03-23T06:44:51;12.10;99.90
8896;DHT22;4484;48.928;10.066;2023-03-23T06:47:17;12.20;99.90
8896;DHT22;4484;48.928;10.066;2023-03-23T06:49:46;12.30;99.90
8896;DHT22;4484;48.928;10.066;2023-03-23T06:52:24;12.40;99.90
8896;DHT22;4484;48.928;10.066;2023-03-23T06:54:51;12.40;99.90
8896;DHT22;4484;48.928;10.066;2023-03-23T06:57:19;12.50;99.90
8896;DHT22;4484;48.928;10.066;2023-03-23T06:59:46;12.50;99.90
8896;DHT22;4484;48.928;10.066;2023-03-23T07:02:14;12.60;99.90
8896;DHT22;4484;48.928;10.066;2023-03-23T07:04:41;12.60;99.90
8896;DHT22;4484;48.928;10.066;2023-03-23T07:07:16;12.70;99.90
8896;DHT22;4484;48.928;10.066;2023-03-23T07:10:22;12.70;99.90
8896;DHT22;4484;48.928;10.066;2023-03-23T07:12:47;12.80;99.90
8896;DHT22;4484;48.928;10.066;2023-03-23T07:15:14;12.80;99.90
8896;DHT22;4484;48.928;10.066;2023-03-23T07:17:44;12.80;99.90
8896;DHT22;4484;48.928;10.066;2023-03-23T07:20:17;12.80;99.90
8896;DHT22;4484;48.928;10.066;2023-03-23T07:22:43;12.90;99.90
8896;DHT22;4484;48.928;10.066;2023-03-23T07:25:20;12.90;99.90
8896;DHT22;4484;48.928;10.066;2023-03-23T07:27:50;13.00;99.90
8896;DHT22;4484;48.928;10.066;2023-03-23T07:30:16;13.00;99.90
8896;DHT22;4484;48.928;10.066;2023-03-23T07:32:42;13.10;99.90
8896;DHT22;4484;48.928;10.066;2023-03-23T07:35:09;13.10;99.90
8896;DHT22;4484;48.928;10.066;2023-03-23T07:37:53;13.20;99.90
8896;DHT22;4484;48.928;10.066;2023-03-23T07:40:20;13.30;99.90
8896;DHT22;4484;48.928;10.066;2023-03-23T07:42:55;13.40;99.90
8896;DHT22;4484;48.928;10.066;2023-03-23T07:45:32;13.40;99.90
8896;DHT22;4484;48.928;10.066;2023-03-23T07:47:58;13.50;99.90
8896;DHT22;4484;48.928;10.066;2023-03-23T07:50:25;13.50;99.90
8896;DHT22;4484;48.928;10.066;2023-03-23T07:52:57;13.50;99.90
8896;DHT22;4484;48.928;10.066;2023-03-23T07:55:25;13.60;99.90
8896;DHT22;4484;48.928;10.066;2023-03-23T07:58:03;13.60;99.90
8896;DHT22;4484;48.928;10.066;2023-03-23T08:00:29;13.60;99.90
8896;DHT22;4484;48.928;10.066;2023-03-23T08:02:57;13.60;99.90
8896;DHT22;4484;48.928;10.066;2023-03-23T08:05:26;13.60;99.90
8896;DHT22;4484;48.928;10.066;2023-03-23T08:08:11;13.60;99.90
8896;DHT22;4484;48.928;10.066;2023-03-23T08:11:07;13.50;99.90
8896;DHT22;4484;48.928;10.066;2023-03-23T08:13:52;13.50;99.90
8896;DHT22;4484;48.928;10.066;2023-03-23T08:16:37;13.60;99.90
8896;DHT22;4484;48.928;10.066;2023-03-23T08:19:14;13.60;99.90
8896;DHT22;4484;48.928;10.066;2023-03-23T08:22:06;13.80;99.90
8896;DHT22;4484;48.928;10.066;2023-03-23T08:24:34;13.80;99.90
8896;DHT22;4484;48.928;10.066;2023-03-23T08:27:23;13.90;99.90
8896;DHT22;4484;48.928;10.066;2023-03-23T08:30:17;14.00;99.90
8896;DHT22;4484;48.928;10.066;2023-03-23T08:32:54;14.10;99.90
8896;DHT22;4484;48.928;10.066;2023-03-23T08:35:40;14.10;99.90
8896;DHT22;4484;48.928;10.066;2023-03-23T08:38:20;14.20;99.90
8896;DHT22;4484;48.928;10.066;2023-03-23T08:41:22;14.20;99.90
8896;DHT22;4484;48.928;10.066;2023-03-23T08:43:47;14.30;99.90
8896;DHT22;4484;48.928;10.066;2023-03-23T08:46:36;14.30;99.90
8896;DHT22;4484;48.928;10.066;2023-03-23T08:49:12;14.40;99.90
8896;DHT22;4484;48.928;10.066;2023-03-23T08:52:07;14.40;99.90
8896;DHT22;4484;48.928;10.066;2023-03-23T08:54:53;14.50;99.90
8896;DHT22;4484;48.928;10.066;2023-03-23T08:57:35;14.50;99.90
8896;DHT22;4484;48.928;10.066;2023-03-23T09:00:20;14.60;99.90
8896;DHT22;4484;48.928;10.066;2023-03-23T09:03:03;14.70;99.90
8896;DHT22;4484;48.928;10.066;2023-03-23T09:05:40;14.80;99.90
8896;DHT22;4484;48.928;10.066;2023-03-23T09:08:22;15.00;99.90
8896;DHT22;4484;48.928;10.066;2023-03-23T09:10:48;15.10;99.90
8896;DHT22;4484;48.928;10.066;2023-03-23T09:13:15;15.20;99.90
8896;DHT22;4484;48.928;10.066;2023-03-23T09:15:41;15.20;99.90
8896;DHT22;4484;48.928;10.066;2023-03-23T09:18:07;15.30;99.90
8896;DHT22;4484;48.928;10.066;2023-03-23T09:20:32;15.30;99.90
8896;DHT22;4484;48.928;10.066;2023-03-23T09:22:58;15.30;99.90
8896;DHT22;4484;48.928;10.066;2023-03-23T09:25:27;15.30;99.90
8896;DHT22;4484;48.928;10.066;2023-03-23T09:27:55;15.30;99.90
8896;DHT22;4484;48.928;10.066;2023-03-23T09:30:24;15.30;99.90
8896;DHT22;4484;48.928;10.066;2023-03-23T09:32:50;15.30;99.90
8896;DHT22;4484;48.928;10.066;2023-03-23T09:35:16;15.40;99.90
8896;DHT22;4484;48.928;10.066;2023-03-23T09:37:43;15.40;99.90
8896;DHT22;4484;48.928;10.066;2023-03-23T09:40:39;15.40;99.90
8896;DHT22;4484;48.928;10.066;2023-03-23T09:43:16;15.40;99.90
8896;DHT22;4484;48.928;10.066;2023-03-23T09:54:27;15.00;99.90
8896;DHT22;4484;48.928;10.066;2023-03-23T09:56:55;14.90;99.90
8896;DHT22;4484;48.928;10.066;2023-03-23T09:59:29;14.70;99.90
8896;DHT22;4484;48.928;10.066;2023-03-23T10:02:26;14.60;99.90
8896;DHT22;4484;48.928;10.066;2023-03-23T10:04:55;14.60;99.90
8896;DHT22;4484;48.928;10.066;2023-03-23T10:07:24;14.60;99.90
8896;DHT22;4484;48.928;10.066;2023-03-23T10:09:56;14.60;99.90
8896;DHT22;4484;48.928;10.066;2023-03-23T10:12:46;14.60;99.90
8896;DHT22;4484;48.928;10.066;2023-03-23T10:15:28;14.70;99.90
8896;DHT22;4484;48.928;10.066;2023-03-23T10:20:53;14.80;99.90
8896;DHT22;4484;48.928;10.066;2023-03-23T10:26:13;14.90;99.90
8896;DHT22;4484;48.928;10.066;2023-03-23T10:28:46;14.90;99.90
8896;DHT22;4484;48.928;10.066;2023-03-23T10:31:21;14.90;99.90
8896;DHT22;4484;48.928;10.066;2023-03-23T10:33:50;14.80;99.90
8896;DHT22;4484;48.928;10.066;2023-03-23T10:36:19;14.70;99.90
8896;DHT22;4484;48.928;10.066;2023-03-23T10:38:56;14.60;99.90
8896;DHT22;4484;48.928;10.066;2023-03-23T10:41:23;14.50;99.90
8896;DHT22;4484;48.928;10.066;2023-03-23T10:43:49;14.50;99.90
8896;DHT22;4484;48.928;10.066;2023-03-23T10:46:36;14.50;99.90
8896;DHT22;4484;48.928;10.066;2023-03-23T10:49:06;14.40;99.90
8896;DHT22;4484;48.928;10.066;2023-03-23T10:51:37;14.40;99.90
8896;DHT22;4484;48.928;10.066;2023-03-23T10:54:04;14.40;99.90
8896;DHT22;4484;48.928;10.066;2023-03-23T10:59:19;14.30;99.90
8896;DHT22;4484;48.928;10.066;2023-03-23T11:01:53;14.30;99.90
8896;DHT22;4484;48.928;10.066;2023-03-23T11:04:20;14.30;99.90
8896;DHT22;4484;48.928;10.066;2023-03-23T11:06:51;14.30;99.90
8896;DHT22;4484;48.928;10.066;2023-03-23T11:09:34;14.20;99.90
8896;DHT22;4484;48.928;10.066;2023-03-23T11:12:00;14.20;99.90
8896;DHT22;4484;48.928;10.066;2023-03-23T11:14:36;14.10;99.90
8896;DHT22;4484;48.928;10.066;2023-03-23T11:17:05;14.10;99.90
8896;DHT22;4484;48.928;10.066;2023-03-23T11:19:45;14.20;99.90
8896;DHT22;4484;48.928;10.066;2023-03-23T11:22:25;14.20;99.90
8896;DHT22;4484;48.928;10.066;2023-03-23T11:24:56;14.30;99.90
8896;DHT22;4484;48.928;10.066;2023-03-23T11:27:24;14.50;99.90
8896;DHT22;4484;48.928;10.066;2023-03-23T11:30:22;14.70;99.90
8896;DHT22;4484;48.928;10.066;2023-03-23T11:32:49;14.80;99.90
8896;DHT22;4484;48.928;10.066;2023-03-23T11:35:20;14.80;99.90
8896;DHT22;4484;48.928;10.066;2023-03-23T11:37:50;14.80;99.90
8896;DHT22;4484;48.928;10.066;2023-03-23T11:40:21;14.80;99.90
8896;DHT22;4484;48.928;10.066;2023-03-23T11:48:39;14.90;99.90
8896;DHT22;4484;48.928;10.066;2023-03-23T11:51:29;15.10;99.90
8896;DHT22;4484;48.928;10.066;2023-03-23T11:56:48;15.40;99.90
8896;DHT22;4484;48.928;10.066;2023-03-23T11:59:26;15.40;99.90
8896;DHT22;4484;48.928;10.066;2023-03-23T12:07:44;15.30;99.90
8896;DHT22;4484;48.928;10.066;2023-03-23T12:15:38;15.20;99.90
8896;DHT22;4484;48.928;10.066;2023-03-23T12:21:57;15.30;99.90
8896;DHT22;4484;48.928;10.066;2023-03-23T12:24:22;15.50;99.90
8896;DHT22;4484;48.928;10.066;2023-03-23T12:27:16;15.60;99.90
8896;DHT22;4484;48.928;10.066;2023-03-23T12:40:58;16.20;99.90
8896;DHT22;4484;48.928;10.066;2023-03-23T12:43:38;16.30;99.90
8896;DHT22;4484;48.928;10.066;2023-03-23T12:46:45;16.30;99.90
8896;DHT22;4484;48.928;10.066;2023-03-23T12:52:14;16.30;99.90
8896;DHT22;4484;48.928;10.066;2023-03-23T12:54:48;16.50;99.90
8896;DHT22;4484;48.928;10.066;2023-03-23T12:58:12;16.60;99.90
8896;DHT22;4484;48.928;10.066;2023-03-23T13:03:31;16.70;99.90
8896;DHT22;4484;48.928;10.066;2023-03-23T13:06:02;16.70;99.90
8896;DHT22;4484;48.928;10.066;2023-03-23T13:08:44;16.70;99.90
8896;DHT22;4484;48.928;10.066;2023-03-23T13:11:20;16.80;99.90
8896;DHT22;4484;48.928;10.066;2023-03-23T13:13:51;16.70;99.90
8896;DHT22;4484;48.928;10.066;2023-03-23T13:19:46;16.80;99.90
8896;DHT22;4484;48.928;10.066;2023-03-23T13:22:23;16.80;99.90
8896;DHT22;4484;48.928;10.066;2023-03-23T13:24:59;16.90;99.90
8896;DHT22;4484;48.928;10.066;2023-03-23T13:27:27;16.80;99.90
8896;DHT22;4484;48.928;10.066;2023-03-23T13:29:57;16.80;99.90
8896;DHT22;4484;48.928;10.066;2023-03-23T13:32:34;16.80;99.90
8896;DHT22;4484;48.928;10.066;2023-03-23T13:35:03;16.90;99.90
8896;DHT22;4484;48.928;10.066;2023-03-23T13:37:29;16.80;99.90
8896;DHT22;4484;48.928;10.066;2023-03-23T13:39:58;16.70;99.90
8896;DHT22;4484;48.928;10.066;2023-03-23T13:42:29;16.70;99.90
8896;DHT22;4484;48.928;10.066;2023-03-23T13:45:22;16.70;99.90
8896;DHT22;4484;48.928;10.066;2023-03-23T13:47:48;16.70;99.90
8896;DHT22;4484;48.928;10.066;2023-03-23T13:55:38;16.60;99.90
8896;DHT22;4484;48.928;10.066;2023-03-23T14:03:14;16.50;99.90
8896;DHT22;4484;48.928;10.066;2023-03-23T14:05:43;16.50;99.90
8896;DHT22;4484;48.928;10.066;2023-03-23T14:10:48;16.40;99.90
8896;DHT22;4484;48.928;10.066;2023-03-23T14:13:38;16.30;99.90
8896;DHT22;4484;48.928;10.066;2023-03-23T14:16:14;16.30;99.90
8896;DHT22;4484;48.928;10.066;2023-03-23T14:18:46;16.20;99.90
8896;DHT22;4484;48.928;10.066;2023-03-23T14:21:16;16.20;99.90
8896;DHT22;4484;48.928;10.066;2023-03-23T14:23:43;16.10;99.90
8896;DHT22;4484;48.928;10.066;2023-03-23T14:26:18;16.10;99.90
8896;DHT22;4484;48.928;10.066;2023-03-23T14:28:49;16.10;99.90
8896;DHT22;4484;48.928;10.066;2023-03-23T14:31:21;16.10;99.90
8896;DHT22;4484;48.928;10.066;2023-03-23T14:33:49;16.10;99.90
8896;DHT22;4484;48.928;10.066;2023-03-23T14:36:24;16.10;99.90
8896;DHT22;4484;48.928;10.066;2023-03-23T14:41:41;16.10;99.90
8896;DHT22;4484;48.928;10.066;2023-03-23T14:44:14;16.00;99.90
8896;DHT22;4484;48.928;10.066;2023-03-23T14:46:42;16.00;99.90
8896;DHT22;4484;48.928;10.066;2023-03-23T14:49:13;16.00;99.90
8896;DHT22;4484;48.928;10.066;2023-03-23T14:51:50;15.90;99.90
8896;DHT22;4484;48.928;10.066;2023-03-23T14:54:27;15.90;99.90
8896;DHT22;4484;48.928;10.066;2023-03-23T14:56:54;15.90;99.90
8896;DHT22;4484;48.928;10.066;2023-03-23T14:59:21;15.90;99.90
8896;DHT22;4484;48.928;10.066;2023-03-23T15:01:49;15.80;99.90
8896;DHT22;4484;48.928;10.066;2023-03-23T15:04:20;15.80;99.90
8896;DHT22;4484;48.928;10.066;2023-03-23T15:06:50;15.80;99.90
8896;DHT22;4484;48.928;10.066;2023-03-23T15:09:20;15.80;99.90
8896;DHT22;4484;48.928;10.066;2023-03-23T15:12:02;15.80;99.90
8896;DHT22;4484;48.928;10.066;2023-03-23T15:14:35;15.80;99.90
8896;DHT22;4484;48.928;10.066;2023-03-23T15:17:17;15.80;99.90
8896;DHT22;4484;48.928;10.066;2023-03-23T15:19:43;15.80;99.90
8896;DHT22;4484;48.928;10.066;2023-03-23T15:25:00;15.70;99.90
8896;DHT22;4484;48.928;10.066;2023-03-23T15:27:28;15.70;99.90
8896;DHT22;4484;48.928;10.066;2023-03-23T15:29:55;15.60;99.90
8896;DHT22;4484;48.928;10.066;2023-03-23T15:32:23;15.60;99.90
8896;DHT22;4484;48.928;10.066;2023-03-23T15:34:51;15.50;99.90
8896;DHT22;4484;48.928;10.066;2023-03-23T15:37:42;15.40;99.90
8896;DHT22;4484;48.928;10.066;2023-03-23T15:40:17;15.40;99.90
8896;DHT22;4484;48.928;10.066;2023-03-23T15:42:43;15.40;99.90
8896;DHT22;4484;48.928;10.066;2023-03-23T15:47:48;15.30;99.90
8896;DHT22;4484;48.928;10.066;2023-03-23T15:52:53;15.20;99.90
8896;DHT22;4484;48.928;10.066;2023-03-23T15:55:34;15.10;99.90
8896;DHT22;4484;48.928;10.066;2023-03-23T15:58:01;15.00;99.90
8896;DHT22;4484;48.928;10.066;2023-03-23T16:00:32;15.00;99.90
8896;DHT22;4484;48.928;10.066;2023-03-23T16:03:01;14.90;99.90
8896;DHT22;4484;48.928;10.066;2023-03-23T16:05:28;14.90;99.90
8896;DHT22;4484;48.928;10.066;2023-03-23T16:07:55;14.80;99.90
8896;DHT22;4484;48.928;10.066;2023-03-23T16:10:24;14.80;99.90
8896;DHT22;4484;48.928;10.066;2023-03-23T16:12:51;14.70;99.90
8896;DHT22;4484;48.928;10.066;2023-03-23T16:15:18;14.70;99.90
8896;DHT22;4484;48.928;10.066;2023-03-23T16:17:46;14.70;99.90
8896;DHT22;4484;48.928;10.066;2023-03-23T16:20:15;14.70;99.90
8896;DHT22;4484;48.928;10.066;2023-03-23T16:22:42;14.60;99.90
8896;DHT22;4484;48.928;10.066;2023-03-23T16:25:10;14.60;99.90
8896;DHT22;4484;48.928;10.066;2023-03-23T16:27:38;14.50;99.90
8896;DHT22;4484;48.928;10.066;2023-03-23T16:30:13;14.50;99.90
8896;DHT22;4484;48.928;10.066;2023-03-23T16:32:40;14.40;99.90
8896;DHT22;4484;48.928;10.066;2023-03-23T16:35:06;14.40;99.90
8896;DHT22;4484;48.928;10.066;2023-03-23T16:37:33;14.30;99.90
8896;DHT22;4484;48.928;10.066;2023-03-23T16:40:01;14.30;99.90
8896;DHT22;4484;48.928;10.066;2023-03-23T16:42:27;14.30;99.90
8896;DHT22;4484;48.928;10.066;2023-03-23T16:44:54;14.30;99.90
8896;DHT22;4484;48.928;10.066;2023-03-23T16:47:21;14.20;99.90
8896;DHT22;4484;48.928;10.066;2023-03-23T16:49:51;14.20;99.90
8896;DHT22;4484;48.928;10.066;2023-03-23T16:52:19;14.20;99.90
8896;DHT22;4484;48.928;10.066;2023-03-23T16:54:46;14.10;99.90
8896;DHT22;4484;48.928;10.066;2023-03-23T16:57:13;14.10;99.90
8896;DHT22;4484;48.928;10.066;2023-03-23T16:59:40;14.10;99.90
8896;DHT22;4484;48.928;10.066;2023-03-23T17:02:09;14.10;99.90
8896;DHT22;4484;48.928;10.066;2023-03-23T17:04:42;14.00;99.90
8896;DHT22;4484;48.928;10.066;2023-03-23T17:07:10;14.00;99.90
8896;DHT22;4484;48.928;10.066;2023-03-23T17:09:38;14.00;99.90
8896;DHT22;4484;48.928;10.066;2023-03-23T17:12:07;13.90;99.90
8896;DHT22;4484;48.928;10.066;2023-03-23T17:14:34;13.90;99.90
8896;DHT22;4484;48.928;10.066;2023-03-23T17:17:01;13.90;99.90
8896;DHT22;4484;48.928;10.066;2023-03-23T17:19:28;13.80;99.90
8896;DHT22;4484;48.928;10.066;2023-03-23T17:21:55;13.90;99.90
8896;DHT22;4484;48.928;10.066;2023-03-23T17:24:22;13.90;99.90
8896;DHT22;4484;48.928;10.066;2023-03-23T17:26:49;13.80;99.90
8896;DHT22;4484;48.928;10.066;2023-03-23T17:29:16;13.80;99.90
8896;DHT22;4484;48.928;10.066;2023-03-23T17:31:42;13.80;99.90
8896;DHT22;4484;48.928;10.066;2023-03-23T17:34:09;13.70;99.90
8896;DHT22;4484;48.928;10.066;2023-03-23T17:36:36;13.60;99.90
8896;DHT22;4484;48.928;10.066;2023-03-23T17:39:03;13.60;99.90
8896;DHT22;4484;48.928;10.066;2023-03-23T17:41:30;13.60;99.90
8896;DHT22;4484;48.928;10.066;2023-03-23T17:43:57;13.50;99.90
8896;DHT22;4484;48.928;10.066;2023-03-23T17:46:24;13.50;99.90
8896;DHT22;4484;48.928;10.066;2023-03-23T17:48:51;13.40;99.90
8896;DHT22;4484;48.928;10.066;2023-03-23T17:51:18;13.40;99.90
8896;DHT22;4484;48.928;10.066;2023-03-23T17:53:45;13.30;99.90
8896;DHT22;4484;48.928;10.066;2023-03-23T17:56:12;13.30;99.90
8896;DHT22;4484;48.928;10.066;2023-03-23T17:58:38;13.20;99.90
8896;DHT22;4484;48.928;10.066;2023-03-23T18:01:06;13.20;99.90